Details From LFMP - Rivesaltes
To LELL - Sabadell
Flight Number -
Tags generated
Created
Modified
Stats Distance 81 nm / 150 km
Max Altitude 9,500 ft / 2,896 m
Waypoints 3
Social Downloads 0
Likes 0
Share VATSIM

Download

Looking for another format? Having issues loading an existing format? Contact us
Advertisement - Login to hide

Notes

Basic altitude profile: - Ascent Rate: 2500ft/min - Ascent Speed: 250kts - Cruise Altitude: 35000ft - Cruise Speed: 420kts - Descent Rate: 1500ft/min - Descent Speed: 250kts Options: - Use NATs: yes - Use PACOTS: yes - Use low airways: yes - Use high airways: yes

Route

LFMP OLOTI LELL

ID Type Via Altitude Latitude Longitude Leg Dist Tot Dist Heading (true) Name
O LFMP APT - 0 ft / 0 m 42.74049˚ 2.87059˚ - 0 nm - Rivesaltes
OLOTI FIX - 9,500 ft / 2,896 m 42.20833˚ 2.46667˚ 36 nm 36 nm 209° / 209° -
O LELL APT - 0 ft / 0 m 41.52098˚ 2.10491˚ 44 nm 80 nm 202° / 201° Sabadell

Altitude Profile

Advertisement - Login to hide

LFMP

Details ICAO LFMP (PGF)
Name Rivesaltes
Region France
Timezone Europe/Paris (UTC+1.0)
Stats Elevation 143 ft / 44 m (AMSL)
Location 42.740488° 2.870594°
Runways 2
Magnetic Variation 0.991° E

METAR

LFMP 160900Z AUTO 31020G32KT 270V340 9999 BKN046 08/M01 Q1016 NOSIG

Decode

TAF

TAF LFMP 160800Z 1609/1709 31020G35KT CAVOK TEMPO 1609/1617 31025G40KT

Decode

Departure Runways

ID Width Length Bearing (true) Bearing (mag) Surface Threshold Offset Overrun Length
13 66 ft / 20 m 4,231 ft / 1,290 m 127.54° 126.55° Asphalt 492 ft / 150 m 0 ft / 0 m
15 148 ft / 45 m 8,189 ft / 2,496 m 148.38° 147.39° Asphalt 0 ft / 0 m 230 ft / 70 m
31 66 ft / 20 m 4,231 ft / 1,290 m 307.55° 306.56° Asphalt 1,148 ft / 350 m 0 ft / 0 m
33 148 ft / 45 m 8,189 ft / 2,496 m 328.39° 327.40° Asphalt 558 ft / 170 m 230 ft / 70 m

LELL

Details ICAO LELL (QSA)
Name Sabadell
Region Spain
Timezone Europe/Madrid (UTC+1.0)
Stats Elevation 465 ft / 142 m (AMSL)
Location 41.520977° 2.104912°
Runways 1
Magnetic Variation 0.821° E

METAR

LELL 160900Z 30007KT 280V340 CAVOK 07/01 Q1015

Decode

TAF

TAF LELL 160800Z 1609/1709 29007KT 9999 FEW030 TX14/1613Z TN02/1706Z PROB40 TEMPO 1612/1618 32012G24KT

Decode

Destination Runways

ID Width Length Bearing (true) Bearing (mag) Surface Threshold Offset Overrun Length
13 98 ft / 30 m 2,956 ft / 901 m 127.50° 126.68° Asphalt 0 ft / 0 m 0 ft / 0 m
31 98 ft / 30 m 2,956 ft / 901 m 307.50° 306.68° Asphalt 0 ft / 0 m 0 ft / 0 m